createdAt,value
2018-03-06T00:01:45.093Z,99271.97
2018-03-06T00:04:11.761Z,99266.69
2018-03-06T00:06:38.614Z,99262.57
2018-03-06T00:09:05.348Z,99263.97
2018-03-06T00:11:32.151Z,99268.25
2018-03-06T00:13:58.818Z,99261.87
2018-03-06T00:16:24.697Z,99271.20
2018-03-06T00:18:51.352Z,99271.86
2018-03-06T00:21:17.226Z,99266.27
2018-03-06T00:23:43.134Z,99263.56
2018-03-06T00:26:08.978Z,99269.78
2018-03-06T00:28:35.806Z,99266.52
2018-03-06T00:31:01.685Z,99263.56
2018-03-06T00:33:27.526Z,99265.72
2018-03-06T00:35:54.216Z,99261.27
2018-03-06T00:38:20.053Z,99267.73
2018-03-06T00:40:45.902Z,99261.28
2018-03-06T00:43:11.757Z,99251.69
2018-03-06T00:45:37.591Z,99256.68
2018-03-06T00:48:03.448Z,99251.83
2018-03-06T00:50:29.303Z,99251.67
2018-03-06T00:52:55.137Z,99252.19
2018-03-06T00:55:21.001Z,99251.42
2018-03-06T00:57:46.846Z,99256.81
2018-03-06T01:00:12.682Z,99250.27
2018-03-06T01:02:45.555Z,99249.25
2018-03-06T01:05:11.409Z,99246.98
2018-03-06T01:07:37.275Z,99247.13
2018-03-06T01:10:03.132Z,99244.12
2018-03-06T01:12:28.973Z,99240.84
2018-03-06T01:14:55.810Z,99238.94
2018-03-06T01:17:22.581Z,99235.03
2018-03-06T01:19:48.413Z,99233.63
2018-03-06T01:22:15.060Z,99229.10
2018-03-06T01:24:40.901Z,99222.30
2018-03-06T01:27:06.754Z,99218.20
2018-03-06T01:29:32.607Z,99218.89
2018-03-06T01:31:58.490Z,99218.64
2018-03-06T01:34:24.338Z,99215.05
2018-03-06T01:36:50.202Z,99219.20
2018-03-06T01:39:16.026Z,99213.22
2018-03-06T01:41:41.907Z,99217.84
2018-03-06T01:44:07.733Z,99202.22
2018-03-06T01:46:34.558Z,99215.23
2018-03-06T01:49:00.390Z,99211.25
2018-03-06T01:51:26.262Z,99209.45
2018-03-06T01:53:52.110Z,99203.71
2018-03-06T01:56:18.764Z,99193.34
2018-03-06T01:58:44.609Z,99193.64
2018-03-06T02:01:10.449Z,99204.77
2018-03-06T02:03:37.191Z,99196.48
2018-03-06T02:06:03.046Z,99184.17
2018-03-06T02:08:29.034Z,99187.11
2018-03-06T02:10:54.929Z,99181.52
2018-03-06T02:13:20.751Z,99176.63
2018-03-06T02:15:46.587Z,99170.98
2018-03-06T02:18:12.498Z,99165.95
2018-03-06T02:20:39.236Z,99165.55
2018-03-06T02:23:05.126Z,99160.48
2018-03-06T02:25:32.014Z,99154.15
2018-03-06T02:27:57.838Z,99150.21
2018-03-06T02:30:23.690Z,99145.54
2018-03-06T02:32:49.513Z,99144.31
2018-03-06T02:35:15.372Z,99146.64
2018-03-06T02:37:41.246Z,99145.91
2018-03-06T02:40:07.147Z,99146.61
2018-03-06T02:42:32.974Z,99141.03
2018-03-06T02:44:58.843Z,99140.31
2018-03-06T02:47:24.677Z,99142.20
2018-03-06T02:49:50.526Z,99144.02
2018-03-06T02:52:16.350Z,99137.61
2018-03-06T02:54:42.235Z,99133.67
2018-03-06T02:57:08.102Z,99131.77
2018-03-06T02:59:33.966Z,99131.61
2018-03-06T03:01:59.830Z,99132.36
2018-03-06T03:04:25.662Z,99133.33
2018-03-06T03:06:51.515Z,99131.80
2018-03-06T03:09:17.372Z,99124.91
2018-03-06T03:11:44.047Z,99133.00
2018-03-06T03:14:09.885Z,99133.48
2018-03-06T03:16:35.755Z,99128.42
2018-03-06T03:19:02.554Z,99131.20
2018-03-06T03:21:29.373Z,99134.92
2018-03-06T03:23:55.257Z,99140.23
2018-03-06T03:26:21.922Z,99133.07
2018-03-06T03:28:47.766Z,99135.95
2018-03-06T03:31:14.522Z,99128.91
2018-03-06T03:33:41.129Z,99134.38
2018-03-06T03:36:07.901Z,99132.21
2018-03-06T03:38:33.770Z,99134.72
2018-03-06T03:40:59.608Z,99130.57
2018-03-06T03:43:25.469Z,99129.63
2018-03-06T03:45:51.722Z,99126.20
2018-03-06T03:48:17.563Z,99123.81
2018-03-06T03:50:43.418Z,99123.81
2018-03-06T03:53:10.190Z,99119.51
2018-03-06T03:55:36.010Z,99125.73
2018-03-06T03:58:02.695Z,99122.70
2018-03-06T04:00:29.544Z,99124.64
2018-03-06T04:02:56.302Z,99120.36
2018-03-06T04:05:22.167Z,99119.46
2018-03-06T04:07:48.939Z,99111.59
2018-03-06T04:10:14.829Z,99114.75
2018-03-06T04:12:41.489Z,99114.41
2018-03-06T04:15:07.354Z,99106.95
2018-03-06T04:17:33.196Z,99108.48
2018-03-06T04:19:59.902Z,99104.95
2018-03-06T04:22:26.683Z,99100.80
2018-03-06T04:24:52.514Z,99102.91
2018-03-06T04:27:18.367Z,99097.20
2018-03-06T04:29:44.209Z,99094.58
2018-03-06T04:32:11.128Z,99090.30
2018-03-06T04:34:37.767Z,99087.98
2018-03-06T04:37:04.558Z,99086.75
2018-03-06T04:39:30.403Z,99083.63
2018-03-06T04:41:56.248Z,99083.97
2018-03-06T04:44:22.083Z,99084.65
2018-03-06T04:46:47.911Z,99080.98
2018-03-06T04:49:13.757Z,99083.97
2018-03-06T04:51:40.454Z,99080.60
2018-03-06T04:54:07.247Z,99075.95
2018-03-06T04:56:33.813Z,99076.52
2018-03-06T04:58:59.681Z,99076.77
2018-03-06T05:01:25.516Z,99084.86
2018-03-06T05:03:52.355Z,99079.13
2018-03-06T05:06:19.002Z,99081.38
2018-03-06T05:08:44.867Z,99084.16
2018-03-06T05:11:11.824Z,99088.30
2018-03-06T05:13:37.686Z,99082.58
2018-03-06T05:16:03.666Z,99083.00
2018-03-06T05:18:29.554Z,99084.80
2018-03-06T05:20:56.364Z,99081.69
2018-03-06T05:23:23.057Z,99082.66
2018-03-06T05:25:48.885Z,99076.84
2018-03-06T05:28:14.727Z,99077.94
2018-03-06T05:30:40.559Z,99075.12
2018-03-06T05:33:06.378Z,99075.95
2018-03-06T05:35:32.219Z,99072.17
2018-03-06T05:37:58.062Z,99065.20
2018-03-06T05:40:23.915Z,99077.83
2018-03-06T05:42:49.746Z,99074.97
2018-03-06T05:45:15.615Z,99073.48
2018-03-06T05:47:41.462Z,99075.95
2018-03-06T05:50:08.369Z,99073.81
2018-03-06T05:52:34.363Z,99075.81
2018-03-06T05:55:00.195Z,99082.73
2018-03-06T05:57:26.071Z,99079.32
2018-03-06T05:59:51.955Z,99083.67
2018-03-06T06:02:17.837Z,99079.06
2018-03-06T06:04:44.738Z,99068.50
2018-03-06T06:07:10.582Z,99075.53
2018-03-06T06:09:36.481Z,99070.70
2018-03-06T06:12:03.514Z,99077.08
2018-03-06T06:14:30.398Z,99073.74
2018-03-06T06:16:56.239Z,99076.66
2018-03-06T06:19:22.059Z,99074.00
2018-03-06T06:21:47.900Z,99071.38
2018-03-06T06:24:13.793Z,99078.09
2018-03-06T06:26:39.619Z,99078.16
2018-03-06T06:29:05.531Z,99079.14
2018-03-06T06:31:31.598Z,99074.49
2018-03-06T06:33:57.462Z,99074.57
2018-03-06T06:36:24.058Z,99077.34
2018-03-06T06:38:50.915Z,99080.72
2018-03-06T06:41:16.767Z,99076.78
2018-03-06T06:43:42.639Z,99071.95
2018-03-06T06:46:08.499Z,99077.34
2018-03-06T06:48:34.326Z,99071.20
2018-03-06T06:51:01.024Z,99077.34
2018-03-06T06:53:26.935Z,99076.11
2018-03-06T06:55:53.050Z,99078.80
2018-03-06T06:58:18.878Z,99074.16
2018-03-06T07:00:44.751Z,99073.22
2018-03-06T07:03:11.177Z,99076.33
2018-03-06T07:05:36.997Z,99074.11
2018-03-06T07:08:02.806Z,99063.59
2018-03-06T07:10:28.631Z,99070.86
2018-03-06T07:12:54.505Z,99066.36
2018-03-06T07:15:20.324Z,99067.00
2018-03-06T07:17:46.136Z,99065.76
2018-03-06T07:20:11.944Z,99066.36
2018-03-06T07:22:37.895Z,99065.76
2018-03-06T07:25:04.610Z,99058.89
2018-03-06T07:27:30.417Z,99063.81
2018-03-06T07:29:57.225Z,99070.22
2018-03-06T07:32:23.036Z,99067.67
2018-03-06T07:34:48.849Z,99073.06
2018-03-06T07:37:14.666Z,99066.34
2018-03-06T07:39:40.514Z,99065.53
2018-03-06T07:42:06.347Z,99072.61
2018-03-06T07:44:32.171Z,99069.77
2018-03-06T07:46:58.849Z,99075.28
2018-03-06T07:49:24.757Z,99070.59
2018-03-06T07:51:51.522Z,99073.22
2018-03-06T07:54:18.344Z,99069.88
2018-03-06T07:56:44.151Z,99066.77
2018-03-06T07:59:09.957Z,99069.81
2018-03-06T08:01:35.759Z,99066.92
2018-03-06T08:04:02.506Z,99065.52
2018-03-06T08:06:28.366Z,99067.11
2018-03-06T08:08:54.190Z,99070.78
2018-03-06T08:11:20.039Z,99068.50
2018-03-06T08:13:46.762Z,99062.23
2018-03-06T08:16:13.480Z,99056.77
2018-03-06T08:18:40.233Z,99059.31
2018-03-06T08:21:06.963Z,99061.59
2018-03-06T08:23:32.773Z,99067.27
2018-03-06T08:25:58.614Z,99059.27
2018-03-06T08:28:25.202Z,99059.55
2018-03-06T08:30:51.921Z,99061.94
2018-03-06T08:33:17.750Z,99056.23
2018-03-06T08:35:44.366Z,99058.00
2018-03-06T08:38:11.113Z,99057.66
2018-03-06T08:40:37.898Z,99060.53
2018-03-06T08:43:04.722Z,99056.37
2018-03-06T08:45:30.533Z,99063.20
2018-03-06T08:47:56.493Z,99060.09
2018-03-06T08:50:22.315Z,99062.16
2018-03-06T08:52:48.130Z,99060.53
2018-03-06T08:55:13.970Z,99057.39
2018-03-06T08:57:39.781Z,99059.41
2018-03-06T09:00:05.591Z,99053.81
2018-03-06T09:02:31.413Z,99050.61
2018-03-06T09:04:57.225Z,99052.97
2018-03-06T09:07:23.072Z,99054.36
2018-03-06T09:09:48.886Z,99048.23
2018-03-06T09:12:14.750Z,99048.47
2018-03-06T09:14:40.551Z,99043.72
2018-03-06T09:17:06.383Z,99047.98
2018-03-06T09:19:32.268Z,99039.88
2018-03-06T09:21:59.010Z,99044.78
2018-03-06T09:24:25.847Z,99043.61
2018-03-06T09:26:51.586Z,99036.08
2018-03-06T09:29:18.344Z,99039.70
2018-03-06T09:31:44.155Z,99037.15
2018-03-06T09:34:10.035Z,99036.69
2018-03-06T09:36:35.850Z,99034.47
2018-03-06T09:39:02.331Z,99036.90
2018-03-06T09:41:29.110Z,99037.98
2018-03-06T09:43:54.914Z,99031.66
2018-03-06T09:46:21.678Z,99026.82
2018-03-06T09:48:48.462Z,99031.09
2018-03-06T09:51:14.266Z,99028.93
2018-03-06T09:53:40.081Z,99023.24
2018-03-06T09:56:05.890Z,99028.93
2018-03-06T09:58:31.698Z,99023.50
2018-03-06T10:00:57.508Z,99013.49
2018-03-06T10:03:23.314Z,99012.48
2018-03-06T10:05:49.122Z,99013.33
2018-03-06T10:08:14.926Z,99009.80
2018-03-06T10:10:40.746Z,99007.14
2018-03-06T10:13:07.571Z,99010.59
2018-03-06T10:15:33.421Z,99002.33
2018-03-06T10:17:59.266Z,99005.27
2018-03-06T10:20:25.077Z,99000.27
2018-03-06T10:22:50.926Z,98994.98
2018-03-06T10:25:16.789Z,98996.63
2018-03-06T10:27:42.612Z,98994.66
2018-03-06T10:30:08.457Z,98996.03
2018-03-06T10:32:34.294Z,98990.31
2018-03-06T10:35:00.107Z,98986.95
2018-03-06T10:37:25.952Z,98981.08
2018-03-06T10:39:52.734Z,98982.71
2018-03-06T10:42:19.502Z,98988.02
2018-03-06T10:44:46.156Z,98985.66
2018-03-06T10:47:12.922Z,98986.77
2018-03-06T10:49:39.826Z,98980.33
2018-03-06T10:52:06.571Z,98980.70
2018-03-06T10:54:32.421Z,98982.83
2018-03-06T10:56:59.122Z,98977.63
2018-03-06T10:59:25.867Z,98972.45
2018-03-06T11:01:56.686Z,98970.21
2018-03-06T11:04:23.525Z,98969.64
2018-03-06T11:06:50.370Z,98963.69
2018-03-06T11:09:17.166Z,98969.87
2018-03-06T11:11:43.006Z,98962.18
2018-03-06T11:14:09.671Z,98954.20
2018-03-06T11:16:36.483Z,98954.85
2018-03-06T11:19:02.294Z,98953.42
2018-03-06T11:21:28.927Z,98950.94
2018-03-06T11:23:55.654Z,98953.64
2018-03-06T11:26:21.454Z,98948.47
2018-03-06T11:28:48.238Z,98946.12
2018-03-06T11:31:14.042Z,98941.00
2018-03-06T11:33:41.463Z,98945.05
2018-03-06T11:36:07.273Z,98938.87
2018-03-06T11:38:33.114Z,98941.37
2018-03-06T11:40:58.967Z,98935.92
2018-03-06T11:43:25.586Z,98930.27
2018-03-06T11:45:51.434Z,98923.67
2018-03-06T11:48:17.248Z,98920.64
2018-03-06T11:50:43.058Z,98923.06
2018-03-06T11:53:09.841Z,98921.93
2018-03-06T11:55:36.679Z,98915.95
2018-03-06T11:58:02.489Z,98918.87
2018-03-06T12:00:29.130Z,98915.91
2018-03-06T12:02:54.935Z,98910.99
2018-03-06T12:05:20.742Z,98913.98
2018-03-06T12:07:46.547Z,98908.28
2018-03-06T12:10:13.282Z,98904.95
2018-03-06T12:12:39.134Z,98903.88
2018-03-06T12:15:05.807Z,98900.80
2018-03-06T12:17:31.622Z,98897.83
2018-03-06T12:19:58.414Z,98896.30
2018-03-06T12:22:24.223Z,98892.03
2018-03-06T12:24:50.035Z,98893.92
2018-03-06T12:27:16.622Z,98887.56
2018-03-06T12:29:42.430Z,98888.98
2018-03-06T12:32:09.226Z,98891.30
2018-03-06T12:34:35.986Z,98884.13
2018-03-06T12:37:02.811Z,98884.83
2018-03-06T12:39:28.618Z,98878.73
2018-03-06T12:41:54.425Z,98881.89
2018-03-06T12:44:21.042Z,98880.22
2018-03-06T12:46:47.794Z,98881.23
2018-03-06T12:49:13.650Z,98877.48
2018-03-06T12:51:39.458Z,98872.96
2018-03-06T12:54:05.265Z,98871.21
2018-03-06T12:56:31.156Z,98871.67
2018-03-06T12:58:56.970Z,98871.81
2018-03-06T13:01:22.777Z,98867.66
2018-03-06T13:03:49.574Z,98860.78
2018-03-06T13:06:16.323Z,98857.74
2018-03-06T13:08:42.135Z,98865.13
2018-03-06T13:11:08.840Z,98867.86
2018-03-06T13:13:34.652Z,98861.20
2018-03-06T13:16:00.463Z,98862.58
2018-03-06T13:18:26.274Z,98864.16
2018-03-06T13:20:53.093Z,98862.66
2018-03-06T13:23:18.904Z,98860.79
2018-03-06T13:25:44.714Z,98859.64
2018-03-06T13:28:10.522Z,98858.48
2018-03-06T13:30:36.330Z,98855.56
2018-03-06T13:33:02.182Z,98852.65
2018-03-06T13:35:27.994Z,98852.13
2018-03-06T13:37:53.842Z,98856.04
2018-03-06T13:40:20.506Z,98848.84
2018-03-06T13:42:47.353Z,98850.13
2018-03-06T13:45:13.162Z,98849.64
2018-03-06T13:47:38.974Z,98854.66
2018-03-06T13:50:04.778Z,98851.02
2018-03-06T13:52:30.581Z,98851.59
2018-03-06T13:54:56.394Z,98845.50
2018-03-06T13:57:22.206Z,98854.83
2018-03-06T13:59:48.110Z,98846.34
2018-03-06T14:02:13.903Z,98848.60
2018-03-06T14:04:39.709Z,98849.20
2018-03-06T14:07:05.519Z,98846.43
2018-03-06T14:09:31.330Z,98843.77
2018-03-06T14:11:57.139Z,98847.12
2018-03-06T14:14:22.947Z,98847.63
2018-03-06T14:16:48.761Z,98847.77
2018-03-06T14:19:14.562Z,98840.20
2018-03-06T14:21:40.374Z,98840.10
2018-03-06T14:24:06.198Z,98836.11
2018-03-06T14:26:32.012Z,98842.20
2018-03-06T14:28:57.827Z,98841.35
2018-03-06T14:31:24.446Z,98839.48
2018-03-06T14:33:50.249Z,98832.02
2018-03-06T14:36:16.058Z,98837.17
2018-03-06T14:38:42.809Z,98833.71
2018-03-06T14:41:09.557Z,98835.69
2018-03-06T14:43:36.443Z,98828.02
2018-03-06T14:46:02.258Z,98827.52
2018-03-06T14:48:29.100Z,98823.19
2018-03-06T14:50:55.863Z,98830.38
2018-03-06T14:53:21.753Z,98824.90
2018-03-06T14:55:47.630Z,98831.12
2018-03-06T14:58:14.524Z,98831.08
2018-03-06T15:00:40.332Z,98833.70
2018-03-06T15:03:06.177Z,98840.73
2018-03-06T15:05:32.981Z,98839.05
2018-03-06T15:07:59.593Z,98839.70
2018-03-06T15:10:25.454Z,98840.27
2018-03-06T15:12:51.258Z,98843.02
2018-03-06T15:15:17.909Z,98838.20
2018-03-06T15:17:43.709Z,98843.00
2018-03-06T15:20:09.550Z,98837.72
2018-03-06T15:22:36.146Z,98839.11
2018-03-06T15:25:02.002Z,98840.66
2018-03-06T15:27:27.831Z,98841.87
2018-03-06T15:29:53.650Z,98839.92
2018-03-06T15:32:19.457Z,98849.38
2018-03-06T15:34:45.261Z,98846.45
2018-03-06T15:37:11.070Z,98851.02
2018-03-06T15:39:36.890Z,98854.99
2018-03-06T15:42:02.742Z,98856.47
2018-03-06T15:44:28.553Z,98852.95
2018-03-06T15:46:55.351Z,98854.44
2018-03-06T15:49:21.291Z,98854.17
2018-03-06T15:51:48.110Z,98865.27
2018-03-06T15:54:13.910Z,98858.72
2018-03-06T15:56:39.717Z,98858.08
2018-03-06T15:59:05.526Z,98855.61
2018-03-06T16:01:32.141Z,98860.04
2018-03-06T16:03:57.954Z,98857.77
2018-03-06T16:06:24.578Z,98858.59
2018-03-06T16:08:51.433Z,98852.98
2018-03-06T16:11:17.242Z,98858.34
2018-03-06T16:13:43.096Z,98858.36
2018-03-06T16:16:08.910Z,98862.64
2018-03-06T16:18:34.754Z,98868.45
2018-03-06T16:21:01.427Z,98864.44
2018-03-06T16:23:29.254Z,98861.20
2018-03-06T16:25:56.037Z,98867.27
2018-03-06T16:28:28.615Z,98867.27
2018-03-06T16:33:40.357Z,98870.43
2018-03-06T16:36:06.162Z,98876.49
2018-03-06T16:38:32.973Z,98875.48
2018-03-06T16:40:58.788Z,98878.52
2018-03-06T16:43:25.450Z,98879.91
2018-03-06T16:45:51.258Z,98876.25
2018-03-06T16:48:17.078Z,98875.77
2018-03-06T16:50:43.055Z,98877.25
2018-03-06T16:53:08.887Z,98884.57
2018-03-06T16:55:34.694Z,98881.30
2018-03-06T16:58:00.530Z,98884.19
2018-03-06T17:00:26.501Z,98882.52
2018-03-06T17:02:52.358Z,98875.77
2018-03-06T17:05:18.178Z,98881.16
2018-03-06T17:07:45.075Z,98880.95
2018-03-06T17:10:10.929Z,98886.20
2018-03-06T17:12:36.891Z,98882.95
2018-03-06T17:15:03.670Z,98889.91
2018-03-06T17:17:29.493Z,98886.40
2018-03-06T17:19:56.183Z,98884.78
2018-03-06T17:22:22.922Z,98888.26
2018-03-06T17:24:48.756Z,98884.47
2018-03-06T17:27:14.589Z,98884.91
2018-03-06T17:29:40.423Z,98890.13
2018-03-06T17:32:06.461Z,98882.13
2018-03-06T17:34:32.290Z,98887.73
2018-03-06T17:36:58.136Z,98890.23
2018-03-06T17:39:24.056Z,98886.02
2018-03-06T17:41:49.881Z,98881.17
2018-03-06T17:44:15.690Z,98879.67
2018-03-06T17:46:42.531Z,98883.56
2018-03-06T17:49:08.355Z,98880.41
2018-03-06T17:51:35.031Z,98875.92
2018-03-06T17:54:01.771Z,98883.39
2018-03-06T17:56:27.613Z,98880.66
2018-03-06T17:58:53.415Z,98879.68
2018-03-06T18:01:19.294Z,98877.91
2018-03-06T18:03:45.107Z,98881.14
2018-03-06T18:06:11.043Z,98879.11
2018-03-06T18:08:36.964Z,98879.34
2018-03-06T18:11:02.891Z,98877.84
2018-03-06T18:13:28.705Z,98875.25
2018-03-06T18:15:54.536Z,98876.10
2018-03-06T18:18:22.611Z,98875.71
2018-03-06T18:20:48.418Z,98873.58
2018-03-06T18:23:14.271Z,98871.31
2018-03-06T18:25:40.144Z,98871.82
2018-03-06T18:28:05.954Z,98868.94
2018-03-06T18:30:31.774Z,98859.52
2018-03-06T18:32:57.681Z,98858.19
2018-03-06T18:35:23.813Z,98863.41
2018-03-06T18:37:49.654Z,98860.03
2018-03-06T18:40:15.457Z,98859.81
2018-03-06T18:42:41.921Z,98856.39
2018-03-06T18:45:07.766Z,98853.80
2018-03-06T18:47:33.662Z,98851.91
2018-03-06T18:50:00.591Z,98850.87
2018-03-06T18:52:26.402Z,98850.36
2018-03-06T18:54:52.215Z,98851.50
2018-03-06T18:57:18.059Z,98851.59
2018-03-06T18:59:43.913Z,98844.70
2018-03-06T19:02:15.922Z,98841.95
2018-03-06T19:04:48.536Z,98842.69
2018-03-06T19:07:14.346Z,98842.59
2018-03-06T19:09:40.319Z,98844.70
2018-03-06T19:12:06.203Z,98841.25
2018-03-06T19:14:32.014Z,98843.20
2018-03-06T19:16:57.883Z,98841.79
2018-03-06T19:19:23.697Z,98845.59
2018-03-06T19:21:49.565Z,98838.70
2018-03-06T19:24:15.385Z,98836.84
2018-03-06T19:26:41.203Z,98840.25
2018-03-06T19:29:07.029Z,98838.16
2018-03-06T19:31:33.670Z,98839.73
2018-03-06T19:34:00.394Z,98840.84
2018-03-06T19:36:26.229Z,98841.25
2018-03-06T19:38:52.050Z,98839.19
2018-03-06T19:41:17.885Z,98834.78
2018-03-06T19:43:43.691Z,98831.33
2018-03-06T19:46:09.511Z,98836.11
2018-03-06T19:48:35.446Z,98834.56
2018-03-06T19:51:01.264Z,98829.03
2018-03-06T19:53:27.091Z,98830.58
2018-03-06T19:55:52.915Z,98829.06
2018-03-06T19:58:18.722Z,98830.94
2018-03-06T20:00:44.620Z,98832.12
2018-03-06T20:03:11.507Z,98824.14
2018-03-06T20:05:37.338Z,98826.94
2018-03-06T20:08:03.158Z,98825.31
2018-03-06T20:10:28.994Z,98825.80
2018-03-06T20:12:54.810Z,98831.41
2018-03-06T20:15:20.643Z,98824.36
2018-03-06T20:17:47.390Z,98820.06
2018-03-06T20:20:14.365Z,98824.86
2018-03-06T20:22:40.199Z,98824.50
2018-03-06T20:25:12.811Z,98819.75
2018-03-06T20:27:38.631Z,98822.84
2018-03-06T20:30:04.679Z,98818.70
2018-03-06T20:32:37.717Z,98822.97
2018-03-06T20:35:03.974Z,98821.22
2018-03-06T20:37:29.930Z,98820.42
2018-03-06T20:40:01.934Z,98817.52
2018-03-06T20:42:27.790Z,98815.38
2018-03-06T20:44:56.517Z,98816.92
2018-03-06T20:47:22.650Z,98815.92
2018-03-06T20:49:48.654Z,98816.41
2018-03-06T20:52:14.621Z,98811.59
2018-03-06T20:54:46.886Z,98806.56
2018-03-06T20:57:12.787Z,98810.20
2018-03-06T20:59:38.734Z,98806.45
2018-03-06T21:02:04.862Z,98811.16
2018-03-06T21:04:30.878Z,98807.88
2018-03-06T21:06:56.809Z,98803.11
2018-03-06T21:09:22.727Z,98797.55
2018-03-06T21:11:48.536Z,98804.14
2018-03-06T21:14:14.346Z,98802.03
2018-03-06T21:16:40.157Z,98803.95
2018-03-06T21:19:06.583Z,98798.67
2018-03-06T21:21:32.443Z,98800.27
2018-03-06T21:23:58.375Z,98792.67
2018-03-06T21:26:25.226Z,98799.99
2018-03-06T21:28:51.073Z,98799.55
2018-03-06T21:31:16.886Z,98795.02
2018-03-06T21:33:42.702Z,98783.47
2018-03-06T21:36:08.590Z,98787.73
2018-03-06T21:38:34.401Z,98786.48
2018-03-06T21:41:00.221Z,98785.49
2018-03-06T21:43:26.040Z,98782.93
2018-03-06T21:45:51.850Z,98783.97
2018-03-06T21:48:17.698Z,98779.42
2018-03-06T21:50:43.508Z,98774.16
2018-03-06T21:53:09.357Z,98778.42
2018-03-06T21:55:35.614Z,98778.14
2018-03-06T21:58:02.349Z,98778.41
2018-03-06T22:00:28.354Z,98776.55
2018-03-06T22:02:54.219Z,98772.66
2018-03-06T22:05:20.910Z,98769.31
2018-03-06T22:07:47.723Z,98766.56
2018-03-06T22:10:13.533Z,98767.05
2018-03-06T22:12:39.511Z,98763.95
2018-03-06T22:15:05.527Z,98770.02
2018-03-06T22:17:32.047Z,98769.82
2018-03-06T22:19:57.907Z,98766.91
2018-03-06T22:22:23.728Z,98765.78
2018-03-06T22:24:49.586Z,98763.73
2018-03-06T22:27:15.611Z,98764.86
2018-03-06T22:29:41.418Z,98760.09
2018-03-06T22:32:08.075Z,98761.64
2018-03-06T22:34:34.723Z,98756.70
2018-03-06T22:37:00.526Z,98760.22
2018-03-06T22:39:26.499Z,98757.23
2018-03-06T22:41:53.139Z,98755.59
2018-03-06T22:44:18.971Z,98756.23
2018-03-06T22:46:44.782Z,98765.81
2018-03-06T22:49:10.638Z,98759.56
2018-03-06T22:51:36.447Z,98757.09
2018-03-06T22:54:02.266Z,98757.91
2018-03-06T22:56:28.221Z,98758.59
2018-03-06T22:58:54.032Z,98758.36
2018-03-06T23:01:19.838Z,98756.20
2018-03-06T23:03:45.646Z,98756.98
2018-03-06T23:06:11.455Z,98756.63
2018-03-06T23:08:37.258Z,98755.39
2018-03-06T23:11:03.110Z,98750.41
2018-03-06T23:13:30.047Z,98752.10
2018-03-06T23:15:56.689Z,98751.31
2018-03-06T23:18:22.506Z,98748.45
2018-03-06T23:20:48.307Z,98750.83
2018-03-06T23:23:14.122Z,98757.86
2018-03-06T23:25:39.930Z,98747.54
2018-03-06T23:28:05.742Z,98753.26
2018-03-06T23:30:31.546Z,98750.08
2018-03-06T23:32:57.402Z,98746.41
2018-03-06T23:35:23.206Z,98750.17
2018-03-06T23:37:49.058Z,98751.98
2018-03-06T23:45:43.648Z,98753.03
2018-03-06T23:48:10.440Z,98754.30
2018-03-06T23:50:37.169Z,98749.09
2018-03-06T23:53:03.921Z,98754.47
2018-03-06T23:55:29.902Z,98746.73
2018-03-06T23:57:55.679Z,98749.67
